createdAt,value
2023-02-13T00:01:47.718Z,26.00
2023-02-13T00:04:17.644Z,25.30
2023-02-13T00:06:48.525Z,25.80
2023-02-13T00:09:19.043Z,17.80
2023-02-13T00:11:48.448Z,18.80
2023-02-13T00:14:18.214Z,16.50
2023-02-13T00:16:48.344Z,18.80
2023-02-13T00:19:18.005Z,16.00
2023-02-13T00:21:48.359Z,18.60
2023-02-13T00:24:18.816Z,16.10
2023-02-13T00:26:48.848Z,15.20
2023-02-13T00:29:18.831Z,13.70
2023-02-13T00:31:49.471Z,13.70
2023-02-13T00:34:20.274Z,15.90
2023-02-13T00:36:53.090Z,14.10
2023-02-13T00:39:24.783Z,13.90
2023-02-13T00:41:55.307Z,12.80
2023-02-13T00:44:25.021Z,14.10
2023-02-13T00:46:55.413Z,11.30
2023-02-13T00:49:28.032Z,12.40
2023-02-13T00:51:58.468Z,17.60
2023-02-13T00:54:28.126Z,16.10
2023-02-13T00:56:58.269Z,17.00
2023-02-13T00:59:31.643Z,17.60
2023-02-13T01:02:03.007Z,19.00
2023-02-13T01:04:34.380Z,17.10
2023-02-13T01:07:05.049Z,18.10
2023-02-13T01:09:34.640Z,17.00
2023-02-13T01:12:04.261Z,18.80
2023-02-13T01:14:33.507Z,15.80
2023-02-13T01:17:02.534Z,16.50
2023-02-13T01:19:33.538Z,16.50
2023-02-13T01:22:03.734Z,21.60
2023-02-13T01:24:33.752Z,22.30
2023-02-13T01:27:04.021Z,17.70
2023-02-13T01:29:34.949Z,24.50
2023-02-13T01:32:05.481Z,24.00
2023-02-13T01:34:35.701Z,11.10
2023-02-13T01:37:06.785Z,10.00
2023-02-13T01:39:36.811Z,13.80
2023-02-13T01:42:16.844Z,15.20
2023-02-13T01:45:27.180Z,14.70
2023-02-13T01:48:16.752Z,12.20
2023-02-13T01:50:56.541Z,11.20
2023-02-13T01:53:34.389Z,9.50
2023-02-13T01:56:29.027Z,14.60
2023-02-13T01:59:06.375Z,9.50
2023-02-13T02:01:37.958Z,8.60
2023-02-13T02:04:13.571Z,16.20
2023-02-13T02:06:55.236Z,16.40
2023-02-13T02:09:33.230Z,15.50
2023-02-13T02:12:27.370Z,15.30
2023-02-13T02:15:00.814Z,14.90
2023-02-13T02:17:34.163Z,17.30
2023-02-13T02:20:15.312Z,16.30
2023-02-13T02:23:09.782Z,17.10
2023-02-13T02:25:58.497Z,16.70
2023-02-13T02:29:06.809Z,18.10
2023-02-13T02:32:05.680Z,16.70
2023-02-13T02:34:55.484Z,17.00
2023-02-13T02:37:43.832Z,17.10
2023-02-13T02:40:52.343Z,15.40
2023-02-13T02:43:22.573Z,15.70
2023-02-13T02:46:10.805Z,15.00
2023-02-13T02:49:21.491Z,15.90
2023-02-13T02:52:01.943Z,15.20
2023-02-13T02:54:52.555Z,14.90
2023-02-13T02:57:49.493Z,16.30
2023-02-13T03:00:46.064Z,14.80
2023-02-13T03:03:43.856Z,14.50
2023-02-13T03:06:25.886Z,13.90
2023-02-13T03:09:19.976Z,13.10
2023-02-13T03:12:15.697Z,13.80
2023-02-13T03:14:47.203Z,12.80
2023-02-13T03:17:37.498Z,10.90
2023-02-13T03:20:52.205Z,13.50
2023-02-13T03:24:08.048Z,14.30
2023-02-13T03:26:58.189Z,14.80
2023-02-13T03:30:03.707Z,15.50
2023-02-13T03:32:47.787Z,16.70
2023-02-13T03:36:05.548Z,15.20
2023-02-13T03:39:06.229Z,15.30
2023-02-13T03:41:56.904Z,13.70
2023-02-13T03:44:39.097Z,14.70
2023-02-13T03:47:13.148Z,14.10
2023-02-13T03:50:08.539Z,15.00
2023-02-13T03:52:54.185Z,14.90
2023-02-13T03:55:55.446Z,14.90
2023-02-13T03:59:07.989Z,13.70
2023-02-13T04:01:39.550Z,13.90
2023-02-13T04:04:42.606Z,13.20
2023-02-13T04:07:30.119Z,14.30
2023-02-13T04:10:06.437Z,12.70
2023-02-13T04:12:49.808Z,13.70
2023-02-13T04:15:40.190Z,13.50
2023-02-13T04:18:24.715Z,14.60
2023-02-13T04:20:54.262Z,12.50
2023-02-13T04:23:24.442Z,13.30
2023-02-13T04:26:05.251Z,13.10
2023-02-13T04:28:36.244Z,12.30
2023-02-13T04:31:06.671Z,14.20
2023-02-13T04:33:36.745Z,15.40
2023-02-13T04:36:08.490Z,13.80
2023-02-13T04:38:38.160Z,14.70
2023-02-13T04:41:08.934Z,14.00
2023-02-13T04:43:38.796Z,13.00
2023-02-13T04:46:09.431Z,12.70
2023-02-13T04:48:40.390Z,12.70
2023-02-13T04:51:10.226Z,13.40
2023-02-13T04:53:40.558Z,13.00
2023-02-13T04:56:09.727Z,12.80
2023-02-13T04:58:42.437Z,13.90
2023-02-13T05:01:16.423Z,12.30
2023-02-13T05:03:47.001Z,11.90
2023-02-13T05:06:17.240Z,13.40
2023-02-13T05:08:47.176Z,12.80
2023-02-13T05:11:16.524Z,13.00
2023-02-13T05:13:46.759Z,12.50
2023-02-13T05:16:16.161Z,12.00
2023-02-13T05:18:45.492Z,12.20
2023-02-13T05:21:39.834Z,12.10
2023-02-13T05:24:09.952Z,11.80
2023-02-13T05:26:39.460Z,12.50
2023-02-13T05:29:20.892Z,13.10
2023-02-13T05:31:54.534Z,12.70
2023-02-13T05:34:27.340Z,11.60
2023-02-13T05:36:57.054Z,11.50
2023-02-13T05:39:27.511Z,11.90
2023-02-13T05:41:56.727Z,12.10
2023-02-13T05:44:26.444Z,12.40
2023-02-13T05:46:57.499Z,10.60
2023-02-13T05:49:27.226Z,10.90
2023-02-13T05:51:58.337Z,9.20
2023-02-13T05:54:28.586Z,12.80
2023-02-13T05:56:58.272Z,12.10
2023-02-13T05:59:29.035Z,13.00
2023-02-13T06:01:58.942Z,11.50
2023-02-13T06:04:29.393Z,11.50
2023-02-13T06:06:58.362Z,12.70
2023-02-13T06:09:28.929Z,12.50
2023-02-13T06:11:58.916Z,12.10
2023-02-13T06:14:28.913Z,12.00
2023-02-13T06:16:57.950Z,11.70
2023-02-13T06:19:27.790Z,12.60
2023-02-13T06:21:56.994Z,12.10
2023-02-13T06:24:28.289Z,12.30
2023-02-13T06:26:58.355Z,11.70
2023-02-13T06:29:32.013Z,12.70
2023-02-13T06:32:01.264Z,12.20
2023-02-13T06:34:31.642Z,14.50
2023-02-13T06:37:01.629Z,13.70
2023-02-13T06:39:31.770Z,13.00
2023-02-13T06:42:01.820Z,12.90
2023-02-13T06:44:33.850Z,14.60
2023-02-13T06:47:04.180Z,14.20
2023-02-13T06:49:33.719Z,15.10
2023-02-13T06:52:03.881Z,13.70
2023-02-13T06:54:46.796Z,13.10
2023-02-13T06:57:18.319Z,12.90
2023-02-13T06:59:50.753Z,12.10
2023-02-13T07:02:21.223Z,11.90
2023-02-13T07:04:51.013Z,12.20
2023-02-13T07:07:20.491Z,11.70
2023-02-13T07:09:53.395Z,10.50
2023-02-13T07:12:23.375Z,11.70
2023-02-13T07:14:53.619Z,12.10
2023-02-13T07:17:23.442Z,11.40
2023-02-13T07:19:54.229Z,12.00
2023-02-13T07:22:24.080Z,10.90
2023-02-13T07:24:54.562Z,12.60
2023-02-13T07:27:25.221Z,11.90
2023-02-13T07:29:54.555Z,12.50
2023-02-13T07:32:27.404Z,12.20
2023-02-13T07:35:02.052Z,10.90
2023-02-13T07:37:33.057Z,11.60
2023-02-13T07:40:05.672Z,9.00
2023-02-13T07:42:36.465Z,10.60
2023-02-13T07:45:10.477Z,11.50
2023-02-13T07:47:40.007Z,9.50
2023-02-13T07:50:11.002Z,10.40
2023-02-13T07:52:40.841Z,11.70
2023-02-13T07:55:12.151Z,9.00
2023-02-13T07:57:42.229Z,9.70
2023-02-13T08:00:35.631Z,9.90
2023-02-13T08:03:05.765Z,10.60
2023-02-13T08:05:35.627Z,10.80
2023-02-13T08:08:07.698Z,10.20
2023-02-13T08:10:55.888Z,9.40
2023-02-13T08:13:28.057Z,9.90
2023-02-13T08:15:58.598Z,10.40
2023-02-13T08:18:28.313Z,10.20
2023-02-13T08:20:57.544Z,11.10
2023-02-13T08:23:27.396Z,10.40
2023-02-13T08:26:03.139Z,11.30
2023-02-13T08:28:33.553Z,10.30
2023-02-13T08:31:12.149Z,10.60
2023-02-13T08:33:43.215Z,9.90
2023-02-13T08:36:13.000Z,10.90
2023-02-13T08:38:42.993Z,10.50
2023-02-13T08:41:13.585Z,10.20
2023-02-13T08:43:44.291Z,11.30
2023-02-13T08:46:14.675Z,9.90
2023-02-13T08:48:44.788Z,11.00
2023-02-13T08:51:15.441Z,7.80
2023-02-13T08:53:45.158Z,10.80
2023-02-13T08:56:15.736Z,9.90
2023-02-13T08:58:50.517Z,11.40
2023-02-13T09:01:19.776Z,11.00
2023-02-13T09:03:49.974Z,10.70
2023-02-13T09:06:31.661Z,12.50
2023-02-13T09:09:01.886Z,9.80
2023-02-13T09:11:34.592Z,11.10
2023-02-13T09:14:07.514Z,12.10
2023-02-13T09:16:37.397Z,12.00
2023-02-13T09:19:08.142Z,11.10
2023-02-13T09:21:37.879Z,12.60
2023-02-13T09:24:09.620Z,11.70
2023-02-13T09:26:38.655Z,11.80
2023-02-13T09:29:09.146Z,10.50
2023-02-13T09:31:39.178Z,13.00
2023-02-13T09:34:09.642Z,10.70
2023-02-13T09:36:39.461Z,12.10
2023-02-13T09:39:10.689Z,12.80
2023-02-13T09:41:44.658Z,12.80
2023-02-13T09:44:35.514Z,10.00
2023-02-13T09:47:40.196Z,12.30
2023-02-13T09:52:58.560Z,17.20
2023-02-13T09:55:54.887Z,18.60
2023-02-13T09:58:55.135Z,16.20
2023-02-13T10:01:34.183Z,17.70
2023-02-13T10:04:25.929Z,19.10
2023-02-13T10:07:22.661Z,20.40
2023-02-13T10:10:09.098Z,17.70
2023-02-13T10:13:04.438Z,21.20
2023-02-13T10:15:48.542Z,22.30
2023-02-13T10:18:26.395Z,19.70
2023-02-13T10:21:02.759Z,21.20
2023-02-13T10:23:50.901Z,19.60
2023-02-13T10:26:46.420Z,21.10
2023-02-13T10:29:40.858Z,21.30
2023-02-13T10:32:15.511Z,21.10
2023-02-13T10:34:47.849Z,20.50
2023-02-13T10:39:56.544Z,22.10
2023-02-13T10:43:34.269Z,23.40
2023-02-13T10:46:27.624Z,20.40
2023-02-13T10:49:30.876Z,23.30
2023-02-13T10:52:10.558Z,23.50
2023-02-13T10:55:17.960Z,20.50
2023-02-13T10:58:05.385Z,22.80
2023-02-13T11:01:00.707Z,22.70
2023-02-13T11:03:32.138Z,21.40
2023-02-13T11:06:08.691Z,22.60
2023-02-13T11:08:47.998Z,21.90
2023-02-13T11:11:40.839Z,20.80
2023-02-13T11:14:23.860Z,21.40
2023-02-13T11:17:06.201Z,22.00
2023-02-13T11:19:59.646Z,22.60
2023-02-13T11:22:36.110Z,21.00
2023-02-13T11:25:30.755Z,21.80
2023-02-13T11:28:19.083Z,22.10
2023-02-13T11:30:54.489Z,22.20
2023-02-13T11:33:29.178Z,21.20
2023-02-13T11:36:33.502Z,23.30
2023-02-13T11:39:07.645Z,23.40
2023-02-13T11:41:46.283Z,22.30
2023-02-13T11:44:29.035Z,21.60
2023-02-13T11:47:01.403Z,22.30
2023-02-13T11:49:36.639Z,20.10
2023-02-13T11:52:24.303Z,21.00
2023-02-13T11:55:05.106Z,22.60
2023-02-13T11:57:38.106Z,21.20
2023-02-13T12:00:35.932Z,21.50
2023-02-13T12:03:29.184Z,21.20
2023-02-13T12:06:14.285Z,20.70
2023-02-13T12:08:47.521Z,17.70
2023-02-13T12:11:35.894Z,20.20
2023-02-13T12:14:06.480Z,20.60
2023-02-13T12:16:51.020Z,22.00
2023-02-13T12:19:44.156Z,20.80
2023-02-13T12:22:51.009Z,20.10
2023-02-13T12:25:49.739Z,20.40
2023-02-13T12:28:41.421Z,19.90
2023-02-13T12:31:38.002Z,20.70
2023-02-13T12:34:23.159Z,21.30
2023-02-13T12:36:58.635Z,21.30
2023-02-13T12:39:36.057Z,21.70
2023-02-13T12:42:32.119Z,21.10
2023-02-13T12:45:28.698Z,22.20
2023-02-13T12:48:14.193Z,19.20
2023-02-13T12:51:12.016Z,19.00
2023-02-13T12:54:30.116Z,19.60
2023-02-13T12:57:16.227Z,19.30
2023-02-13T12:59:57.191Z,20.00
2023-02-13T13:02:50.744Z,21.80
2023-02-13T13:05:35.516Z,21.40
2023-02-13T13:08:40.154Z,20.80
2023-02-13T13:11:27.696Z,19.80
2023-02-13T13:14:18.715Z,20.90
2023-02-13T13:17:21.695Z,19.30
2023-02-13T13:20:09.122Z,20.10
2023-02-13T13:22:53.160Z,21.50
2023-02-13T13:25:29.868Z,22.40
2023-02-13T13:28:12.722Z,19.20
2023-02-13T13:30:47.535Z,20.30
2023-02-13T13:33:23.186Z,20.70
2023-02-13T13:36:09.025Z,21.60
2023-02-13T13:39:01.408Z,20.20
2023-02-13T13:44:48.347Z,20.90
2023-02-13T13:47:39.928Z,20.20
2023-02-13T13:50:27.974Z,19.00
2023-02-13T13:53:25.999Z,20.50
2023-02-13T13:55:59.888Z,20.70
2023-02-13T13:58:40.805Z,21.40
2023-02-13T14:01:29.898Z,19.70
2023-02-13T14:04:04.519Z,22.60
2023-02-13T14:06:49.040Z,22.90
2023-02-13T14:09:30.746Z,21.60
2023-02-13T14:12:26.436Z,22.60
2023-02-13T14:14:59.347Z,22.10
2023-02-13T14:17:47.620Z,22.00
2023-02-13T14:20:44.663Z,21.60
2023-02-13T14:23:36.935Z,19.00
2023-02-13T14:26:27.916Z,19.10
2023-02-13T14:29:23.382Z,19.30
2023-02-13T14:32:32.960Z,18.50
2023-02-13T14:35:23.358Z,17.20
2023-02-13T14:38:00.867Z,16.90
2023-02-13T14:40:49.353Z,16.40
2023-02-13T14:43:39.790Z,17.00
2023-02-13T14:46:17.569Z,17.10
2023-02-13T14:49:02.141Z,16.50
2023-02-13T14:51:41.433Z,17.80
2023-02-13T14:54:22.560Z,16.90
2023-02-13T14:56:58.393Z,18.10
2023-02-13T14:59:35.853Z,18.70
2023-02-13T15:02:31.566Z,12.60
2023-02-13T15:05:12.651Z,9.60
2023-02-13T15:07:53.895Z,7.60
2023-02-13T15:10:44.479Z,5.90
2023-02-13T15:13:23.415Z,5.90
2023-02-13T15:16:13.992Z,6.10
2023-02-13T15:18:52.994Z,5.70
2023-02-13T15:21:34.228Z,5.90
2023-02-13T15:24:04.388Z,5.60
2023-02-13T15:26:34.995Z,5.30
2023-02-13T15:29:27.729Z,5.30
2023-02-13T15:32:01.371Z,5.10
2023-02-13T15:34:37.809Z,4.60
2023-02-13T15:37:28.997Z,6.00
2023-02-13T15:40:42.276Z,5.80
2023-02-13T15:43:49.768Z,5.40
2023-02-13T15:46:46.533Z,6.80
2023-02-13T15:49:34.650Z,7.00
2023-02-13T15:52:22.469Z,7.80
2023-02-13T15:55:20.571Z,7.70
2023-02-13T15:58:02.886Z,6.50
2023-02-13T16:00:37.952Z,6.90
2023-02-13T16:03:15.803Z,6.50
2023-02-13T16:05:56.812Z,6.50
2023-02-13T16:08:47.717Z,6.30
2023-02-13T16:11:17.029Z,6.10
2023-02-13T16:14:25.266Z,6.90
2023-02-13T16:16:57.229Z,7.40
2023-02-13T16:19:51.207Z,7.70
2023-02-13T16:22:33.350Z,7.90
2023-02-13T16:25:18.812Z,6.50
2023-02-13T16:28:15.842Z,6.70
2023-02-13T16:31:02.996Z,6.30
2023-02-13T16:33:44.811Z,6.40
2023-02-13T16:36:13.858Z,6.60
2023-02-13T16:38:53.875Z,6.40
2023-02-13T16:41:41.214Z,6.50
2023-02-13T16:44:42.218Z,6.90
2023-02-13T16:47:33.106Z,7.10
2023-02-13T16:50:23.814Z,7.10
2023-02-13T16:53:05.439Z,6.70
2023-02-13T16:55:34.559Z,7.10
2023-02-13T16:58:20.111Z,7.10
2023-02-13T17:01:06.707Z,6.90
2023-02-13T17:04:17.020Z,6.00
2023-02-13T17:06:49.009Z,7.00
2023-02-13T17:09:27.332Z,7.40
2023-02-13T17:12:22.427Z,7.30
2023-02-13T17:15:22.185Z,8.40
2023-02-13T17:18:00.613Z,6.80
2023-02-13T17:20:57.780Z,9.20
2023-02-13T17:23:52.093Z,8.60
2023-02-13T17:26:24.665Z,9.10
2023-02-13T17:29:02.930Z,6.90
2023-02-13T17:31:41.627Z,9.50
2023-02-13T17:34:20.120Z,11.40
2023-02-13T17:37:43.257Z,10.00
2023-02-13T17:40:35.393Z,11.50
2023-02-13T17:43:08.234Z,10.30
2023-02-13T17:45:37.670Z,13.10
2023-02-13T17:48:08.242Z,9.90
2023-02-13T17:50:55.345Z,10.00
2023-02-13T17:56:12.496Z,6.70
2023-02-13T17:58:47.692Z,6.10
2023-02-13T18:01:28.542Z,6.60
2023-02-13T18:03:58.303Z,6.30
2023-02-13T18:06:29.465Z,6.70
2023-02-13T18:09:01.656Z,6.20
2023-02-13T18:11:36.711Z,6.90
2023-02-13T18:14:07.656Z,7.50
2023-02-13T18:16:38.582Z,9.20
2023-02-13T18:19:09.192Z,8.10
2023-02-13T18:21:42.085Z,7.40
2023-02-13T18:24:13.817Z,7.50
2023-02-13T18:26:43.826Z,8.10
2023-02-13T18:29:13.326Z,7.20
2023-02-13T18:31:43.974Z,8.10
2023-02-13T18:34:15.860Z,7.70
2023-02-13T18:36:48.663Z,8.50
2023-02-13T18:39:23.041Z,8.60
2023-02-13T18:41:52.739Z,8.50
2023-02-13T18:44:28.408Z,9.20
2023-02-13T18:47:03.207Z,8.70
2023-02-13T18:49:33.618Z,8.40
2023-02-13T18:52:07.310Z,9.30
2023-02-13T18:54:36.818Z,8.00
2023-02-13T18:57:07.611Z,7.90
2023-02-13T18:59:44.535Z,9.10
2023-02-13T19:02:14.227Z,9.30
2023-02-13T19:04:44.799Z,9.40
2023-02-13T19:07:14.663Z,9.70
2023-02-13T19:09:45.593Z,8.50
2023-02-13T19:12:15.925Z,9.10
2023-02-13T19:14:45.927Z,9.90
2023-02-13T19:17:16.382Z,10.10
2023-02-13T19:19:49.889Z,10.30
2023-02-13T19:22:19.521Z,9.10
2023-02-13T19:24:49.575Z,7.80
2023-02-13T19:27:19.333Z,10.10
2023-02-13T19:29:49.068Z,10.40
2023-02-13T19:32:18.627Z,9.90
2023-02-13T19:34:48.724Z,11.00
2023-02-13T19:37:19.464Z,9.20
2023-02-13T19:39:49.138Z,11.70
2023-02-13T19:42:19.195Z,9.80
2023-02-13T19:44:49.221Z,9.80
2023-02-13T19:47:23.490Z,8.10
2023-02-13T19:49:53.559Z,8.50
2023-02-13T19:52:22.817Z,9.80
2023-02-13T19:54:55.160Z,10.60
2023-02-13T19:57:25.329Z,13.10
2023-02-13T19:59:55.066Z,11.90
2023-02-13T20:02:27.673Z,14.50
2023-02-13T20:04:57.516Z,12.90
2023-02-13T20:07:27.171Z,13.00
2023-02-13T20:09:56.463Z,13.90
2023-02-13T20:12:26.605Z,13.20
2023-02-13T20:14:57.656Z,14.70
2023-02-13T20:17:27.144Z,16.60
2023-02-13T20:19:58.612Z,16.70
2023-02-13T20:22:33.229Z,16.10
2023-02-13T20:25:02.705Z,15.30
2023-02-13T20:30:16.720Z,12.70
2023-02-13T20:32:46.574Z,15.10
2023-02-13T20:35:17.091Z,13.90
2023-02-13T20:37:48.207Z,14.30
2023-02-13T20:40:18.338Z,13.60
2023-02-13T20:42:47.707Z,13.20
2023-02-13T20:45:17.621Z,14.10
2023-02-13T20:47:48.399Z,14.30
2023-02-13T20:50:19.856Z,13.20
2023-02-13T20:52:49.983Z,12.90
2023-02-13T20:55:19.895Z,11.00
2023-02-13T20:57:50.597Z,12.10
2023-02-13T21:00:20.567Z,11.10
2023-02-13T21:02:50.431Z,10.00
2023-02-13T21:05:20.805Z,10.70
2023-02-13T21:07:52.065Z,9.90
2023-02-13T21:10:22.807Z,10.10
2023-02-13T21:12:54.523Z,11.70
2023-02-13T21:15:28.768Z,11.10
2023-02-13T21:18:02.336Z,9.80
2023-02-13T21:20:32.926Z,11.00
2023-02-13T21:23:05.999Z,8.30
2023-02-13T21:25:41.294Z,8.60
2023-02-13T21:28:13.669Z,8.50
2023-02-13T21:30:44.057Z,8.90
2023-02-13T21:33:13.719Z,8.20
2023-02-13T21:35:43.918Z,11.80
2023-02-13T21:38:14.473Z,9.60
2023-02-13T21:40:43.669Z,10.00
2023-02-13T21:43:14.310Z,12.10
2023-02-13T21:45:44.836Z,10.50
2023-02-13T21:48:17.934Z,12.70
2023-02-13T21:50:47.695Z,12.00
2023-02-13T21:53:16.855Z,11.40
2023-02-13T21:55:49.436Z,15.10
2023-02-13T21:58:19.947Z,15.40
2023-02-13T22:00:50.641Z,15.90
2023-02-13T22:03:20.870Z,13.50
2023-02-13T22:05:51.123Z,13.10
2023-02-13T22:08:21.555Z,14.80
2023-02-13T22:10:57.853Z,16.10
2023-02-13T22:13:30.152Z,11.60
2023-02-13T22:16:02.452Z,10.30
2023-02-13T22:18:34.924Z,12.70
2023-02-13T22:21:16.830Z,10.10
2023-02-13T22:23:48.272Z,9.40
2023-02-13T22:26:20.778Z,10.00
2023-02-13T22:28:51.027Z,10.90
2023-02-13T22:31:25.269Z,9.80
2023-02-13T22:34:03.842Z,9.50
2023-02-13T22:36:41.379Z,9.30
2023-02-13T22:39:13.393Z,10.30
2023-02-13T22:41:46.330Z,11.00
2023-02-13T22:46:45.682Z,10.40
2023-02-13T22:49:15.172Z,11.50
2023-02-13T22:51:47.096Z,12.10
2023-02-13T22:54:17.875Z,11.70
2023-02-13T22:56:47.477Z,11.30
2023-02-13T22:59:16.764Z,11.90
2023-02-13T23:01:47.472Z,12.80
2023-02-13T23:04:20.320Z,13.40
2023-02-13T23:06:50.862Z,13.00
2023-02-13T23:09:21.770Z,13.90
2023-02-13T23:12:10.877Z,14.30
2023-02-13T23:14:41.981Z,13.90
2023-02-13T23:17:30.406Z,14.30
2023-02-13T23:20:00.866Z,13.50
2023-02-13T23:22:31.007Z,14.30
2023-02-13T23:25:03.291Z,13.30
2023-02-13T23:27:35.126Z,12.50
2023-02-13T23:30:13.956Z,13.60
2023-02-13T23:32:44.308Z,12.20
2023-02-13T23:35:14.778Z,14.40
2023-02-13T23:37:45.339Z,15.00
2023-02-13T23:40:17.070Z,15.90
2023-02-13T23:42:46.938Z,12.60
2023-02-13T23:45:16.995Z,13.60
2023-02-13T23:47:47.527Z,13.30
2023-02-13T23:50:17.546Z,10.50
2023-02-13T23:52:48.520Z,12.00
2023-02-13T23:55:19.374Z,12.70
2023-02-13T23:57:52.662Z,13.10
